sensor_id;sensor_type;location;lat;lon;timestamp;temperature;humidity
28336;DHT22;15592;53.656;7.276;2023-11-21T00:01:01;9.50;99.90
28336;DHT22;15592;53.656;7.276;2023-11-21T00:03:29;9.50;99.90
28336;DHT22;15592;53.656;7.276;2023-11-21T00:05:55;9.50;99.90
28336;DHT22;15592;53.656;7.276;2023-11-21T00:08:20;9.50;99.90
28336;DHT22;15592;53.656;7.276;2023-11-21T00:10:46;9.50;99.90
28336;DHT22;15592;53.656;7.276;2023-11-21T00:13:12;9.60;99.90
28336;DHT22;15592;53.656;7.276;2023-11-21T00:15:37;9.50;99.90
28336;DHT22;15592;53.656;7.276;2023-11-21T00:18:03;9.50;99.90
28336;DHT22;15592;53.656;7.276;2023-11-21T00:20:29;9.50;99.90
28336;DHT22;15592;53.656;7.276;2023-11-21T00:22:54;9.50;99.90
28336;DHT22;15592;53.656;7.276;2023-11-21T00:25:20;9.50;99.90
28336;DHT22;15592;53.656;7.276;2023-11-21T00:27:45;9.50;99.90
28336;DHT22;15592;53.656;7.276;2023-11-21T00:30:12;9.50;99.90
28336;DHT22;15592;53.656;7.276;2023-11-21T00:32:38;9.50;99.90
28336;DHT22;15592;53.656;7.276;2023-11-21T00:35:04;9.50;99.90
28336;DHT22;15592;53.656;7.276;2023-11-21T00:37:29;9.50;99.90
28336;DHT22;15592;53.656;7.276;2023-11-21T00:39:57;9.50;99.90
28336;DHT22;15592;53.656;7.276;2023-11-21T00:42:23;9.50;99.90
28336;DHT22;15592;53.656;7.276;2023-11-21T00:44:49;9.50;99.90
28336;DHT22;15592;53.656;7.276;2023-11-21T00:47:14;9.50;99.90
28336;DHT22;15592;53.656;7.276;2023-11-21T00:49:40;9.50;99.90
28336;DHT22;15592;53.656;7.276;2023-11-21T00:52:06;9.50;99.90
28336;DHT22;15592;53.656;7.276;2023-11-21T00:54:32;9.50;99.90
28336;DHT22;15592;53.656;7.276;2023-11-21T00:56:59;9.50;99.90
28336;DHT22;15592;53.656;7.276;2023-11-21T00:59:24;9.50;99.90
28336;DHT22;15592;53.656;7.276;2023-11-21T01:01:50;9.50;99.90
28336;DHT22;15592;53.656;7.276;2023-11-21T01:04:16;9.50;99.90
28336;DHT22;15592;53.656;7.276;2023-11-21T01:06:41;9.50;99.90
28336;DHT22;15592;53.656;7.276;2023-11-21T01:09:07;9.50;99.90
28336;DHT22;15592;53.656;7.276;2023-11-21T01:11:36;9.50;99.90
28336;DHT22;15592;53.656;7.276;2023-11-21T01:14:02;9.50;99.90
28336;DHT22;15592;53.656;7.276;2023-11-21T01:16:29;9.50;99.90
28336;DHT22;15592;53.656;7.276;2023-11-21T01:18:54;9.50;99.90
28336;DHT22;15592;53.656;7.276;2023-11-21T01:21:20;9.50;99.90
28336;DHT22;15592;53.656;7.276;2023-11-21T01:23:46;9.50;99.90
28336;DHT22;15592;53.656;7.276;2023-11-21T01:26:13;9.50;99.90
28336;DHT22;15592;53.656;7.276;2023-11-21T01:28:38;9.50;99.90
28336;DHT22;15592;53.656;7.276;2023-11-21T01:31:04;9.50;99.90
28336;DHT22;15592;53.656;7.276;2023-11-21T01:33:29;9.50;99.90
28336;DHT22;15592;53.656;7.276;2023-11-21T01:35:55;9.50;99.90
28336;DHT22;15592;53.656;7.276;2023-11-21T01:38:21;9.40;99.90
28336;DHT22;15592;53.656;7.276;2023-11-21T01:40:47;9.40;99.90
28336;DHT22;15592;53.656;7.276;2023-11-21T01:43:13;9.40;99.90
28336;DHT22;15592;53.656;7.276;2023-11-21T01:45:39;9.30;99.90
28336;DHT22;15592;53.656;7.276;2023-11-21T01:48:05;9.30;99.90
28336;DHT22;15592;53.656;7.276;2023-11-21T01:50:32;9.20;99.90
28336;DHT22;15592;53.656;7.276;2023-11-21T01:52:59;9.20;99.90
28336;DHT22;15592;53.656;7.276;2023-11-21T01:55:26;9.20;99.90
28336;DHT22;15592;53.656;7.276;2023-11-21T01:57:53;9.20;99.90
28336;DHT22;15592;53.656;7.276;2023-11-21T02:00:18;9.20;99.90
28336;DHT22;15592;53.656;7.276;2023-11-21T02:02:45;9.20;99.90
28336;DHT22;15592;53.656;7.276;2023-11-21T02:05:12;9.20;99.90
28336;DHT22;15592;53.656;7.276;2023-11-21T02:07:42;9.10;99.90
28336;DHT22;15592;53.656;7.276;2023-11-21T02:10:10;9.10;99.90
28336;DHT22;15592;53.656;7.276;2023-11-21T02:12:40;9.00;99.90
28336;DHT22;15592;53.656;7.276;2023-11-21T02:15:08;9.00;99.90
28336;DHT22;15592;53.656;7.276;2023-11-21T02:17:41;9.00;99.90
28336;DHT22;15592;53.656;7.276;2023-11-21T02:20:12;9.00;99.90
28336;DHT22;15592;53.656;7.276;2023-11-21T02:22:41;9.00;99.90
28336;DHT22;15592;53.656;7.276;2023-11-21T02:25:10;8.90;99.90
28336;DHT22;15592;53.656;7.276;2023-11-21T02:27:36;8.90;99.90
28336;DHT22;15592;53.656;7.276;2023-11-21T02:30:03;8.90;99.90
28336;DHT22;15592;53.656;7.276;2023-11-21T02:32:30;8.90;99.90
28336;DHT22;15592;53.656;7.276;2023-11-21T02:34:57;8.90;99.90
28336;DHT22;15592;53.656;7.276;2023-11-21T02:37:26;8.90;99.90
28336;DHT22;15592;53.656;7.276;2023-11-21T02:39:52;8.90;99.90
28336;DHT22;15592;53.656;7.276;2023-11-21T02:42:18;8.80;99.90
28336;DHT22;15592;53.656;7.276;2023-11-21T02:44:44;8.90;99.90
28336;DHT22;15592;53.656;7.276;2023-11-21T02:47:09;8.80;99.90
28336;DHT22;15592;53.656;7.276;2023-11-21T02:49:35;8.80;99.90
28336;DHT22;15592;53.656;7.276;2023-11-21T02:52:01;8.80;99.90
28336;DHT22;15592;53.656;7.276;2023-11-21T02:54:27;8.80;99.90
28336;DHT22;15592;53.656;7.276;2023-11-21T02:56:53;8.80;99.90
28336;DHT22;15592;53.656;7.276;2023-11-21T02:59:18;8.80;99.90
28336;DHT22;15592;53.656;7.276;2023-11-21T03:01:45;8.80;99.90
28336;DHT22;15592;53.656;7.276;2023-11-21T03:04:11;8.80;99.90
28336;DHT22;15592;53.656;7.276;2023-11-21T03:06:43;8.80;99.90
28336;DHT22;15592;53.656;7.276;2023-11-21T03:09:09;8.80;99.90
28336;DHT22;15592;53.656;7.276;2023-11-21T03:11:35;8.70;99.90
28336;DHT22;15592;53.656;7.276;2023-11-21T03:14:00;8.70;99.90
28336;DHT22;15592;53.656;7.276;2023-11-21T03:16:26;8.70;99.90
28336;DHT22;15592;53.656;7.276;2023-11-21T03:18:52;8.70;99.90
28336;DHT22;15592;53.656;7.276;2023-11-21T03:21:17;8.70;99.90
28336;DHT22;15592;53.656;7.276;2023-11-21T03:23:43;8.70;99.90
28336;DHT22;15592;53.656;7.276;2023-11-21T03:26:12;8.70;99.90
28336;DHT22;15592;53.656;7.276;2023-11-21T03:28:38;8.70;99.90
28336;DHT22;15592;53.656;7.276;2023-11-21T03:31:04;8.60;99.90
28336;DHT22;15592;53.656;7.276;2023-11-21T03:33:32;8.60;99.90
28336;DHT22;15592;53.656;7.276;2023-11-21T03:35:57;8.60;99.90
28336;DHT22;15592;53.656;7.276;2023-11-21T03:38:23;8.60;99.90
28336;DHT22;15592;53.656;7.276;2023-11-21T03:40:49;8.60;99.90
28336;DHT22;15592;53.656;7.276;2023-11-21T03:43:16;8.50;99.90
28336;DHT22;15592;53.656;7.276;2023-11-21T03:45:41;8.50;99.90
28336;DHT22;15592;53.656;7.276;2023-11-21T03:48:07;8.50;99.90
28336;DHT22;15592;53.656;7.276;2023-11-21T03:50:34;8.50;99.90
28336;DHT22;15592;53.656;7.276;2023-11-21T03:53:00;8.50;99.90
28336;DHT22;15592;53.656;7.276;2023-11-21T03:55:25;8.40;99.90
28336;DHT22;15592;53.656;7.276;2023-11-21T03:57:52;8.40;99.90
28336;DHT22;15592;53.656;7.276;2023-11-21T04:00:17;8.40;99.90
28336;DHT22;15592;53.656;7.276;2023-11-21T04:02:45;8.40;99.90
28336;DHT22;15592;53.656;7.276;2023-11-21T04:05:11;8.40;99.90
28336;DHT22;15592;53.656;7.276;2023-11-21T04:07:37;8.40;99.90
28336;DHT22;15592;53.656;7.276;2023-11-21T04:10:05;8.40;99.90
28336;DHT22;15592;53.656;7.276;2023-11-21T04:12:33;8.40;99.90
28336;DHT22;15592;53.656;7.276;2023-11-21T04:14:59;8.40;99.90
28336;DHT22;15592;53.656;7.276;2023-11-21T04:17:24;8.40;99.90
28336;DHT22;15592;53.656;7.276;2023-11-21T04:19:50;8.40;99.90
28336;DHT22;15592;53.656;7.276;2023-11-21T04:22:15;8.30;99.90
28336;DHT22;15592;53.656;7.276;2023-11-21T04:24:41;8.40;99.90
28336;DHT22;15592;53.656;7.276;2023-11-21T04:27:07;8.30;99.90
28336;DHT22;15592;53.656;7.276;2023-11-21T04:29:33;8.30;99.90
28336;DHT22;15592;53.656;7.276;2023-11-21T04:31:59;8.30;99.90
28336;DHT22;15592;53.656;7.276;2023-11-21T04:34:24;8.30;99.90
28336;DHT22;15592;53.656;7.276;2023-11-21T04:36:50;8.30;99.90
28336;DHT22;15592;53.656;7.276;2023-11-21T04:39:16;8.20;99.90
28336;DHT22;15592;53.656;7.276;2023-11-21T04:41:41;8.20;99.90
28336;DHT22;15592;53.656;7.276;2023-11-21T04:44:08;8.20;99.90
28336;DHT22;15592;53.656;7.276;2023-11-21T04:46:33;8.20;99.90
28336;DHT22;15592;53.656;7.276;2023-11-21T04:48:59;8.20;99.90
28336;DHT22;15592;53.656;7.276;2023-11-21T04:51:25;8.20;99.90
28336;DHT22;15592;53.656;7.276;2023-11-21T04:53:50;8.10;99.90
28336;DHT22;15592;53.656;7.276;2023-11-21T04:56:16;8.10;99.90
28336;DHT22;15592;53.656;7.276;2023-11-21T04:58:42;8.10;99.90
28336;DHT22;15592;53.656;7.276;2023-11-21T05:01:08;8.10;99.90
28336;DHT22;15592;53.656;7.276;2023-11-21T05:03:34;8.10;99.90
28336;DHT22;15592;53.656;7.276;2023-11-21T05:06:00;8.10;99.90
28336;DHT22;15592;53.656;7.276;2023-11-21T05:08:25;8.10;99.90
28336;DHT22;15592;53.656;7.276;2023-11-21T05:10:52;8.10;99.90
28336;DHT22;15592;53.656;7.276;2023-11-21T05:13:17;8.00;99.90
28336;DHT22;15592;53.656;7.276;2023-11-21T05:15:44;8.00;99.90
28336;DHT22;15592;53.656;7.276;2023-11-21T05:18:10;8.10;99.90
28336;DHT22;15592;53.656;7.276;2023-11-21T05:20:36;8.10;99.90
28336;DHT22;15592;53.656;7.276;2023-11-21T05:23:04;8.10;99.90
28336;DHT22;15592;53.656;7.276;2023-11-21T05:25:30;8.10;99.90
28336;DHT22;15592;53.656;7.276;2023-11-21T05:27:56;8.10;99.90
28336;DHT22;15592;53.656;7.276;2023-11-21T05:30:22;8.00;99.90
28336;DHT22;15592;53.656;7.276;2023-11-21T05:32:47;8.00;99.90
28336;DHT22;15592;53.656;7.276;2023-11-21T05:35:15;8.00;99.90
28336;DHT22;15592;53.656;7.276;2023-11-21T05:37:42;8.00;99.90
28336;DHT22;15592;53.656;7.276;2023-11-21T05:40:08;8.00;99.90
28336;DHT22;15592;53.656;7.276;2023-11-21T05:42:36;8.00;99.90
28336;DHT22;15592;53.656;7.276;2023-11-21T05:45:02;8.00;99.90
28336;DHT22;15592;53.656;7.276;2023-11-21T05:47:41;7.90;99.90
28336;DHT22;15592;53.656;7.276;2023-11-21T05:50:17;7.90;99.90
28336;DHT22;15592;53.656;7.276;2023-11-21T05:52:45;7.90;99.90
28336;DHT22;15592;53.656;7.276;2023-11-21T05:55:14;7.90;99.90
28336;DHT22;15592;53.656;7.276;2023-11-21T05:57:41;7.90;99.90
28336;DHT22;15592;53.656;7.276;2023-11-21T06:00:12;7.90;99.90
28336;DHT22;15592;53.656;7.276;2023-11-21T06:02:44;7.90;99.90
28336;DHT22;15592;53.656;7.276;2023-11-21T06:05:10;7.90;99.90
28336;DHT22;15592;53.656;7.276;2023-11-21T06:07:37;7.90;99.90
28336;DHT22;15592;53.656;7.276;2023-11-21T06:10:07;7.90;99.90
28336;DHT22;15592;53.656;7.276;2023-11-21T06:12:37;7.90;99.90
28336;DHT22;15592;53.656;7.276;2023-11-21T06:15:04;7.90;99.90
28336;DHT22;15592;53.656;7.276;2023-11-21T06:17:31;7.90;99.90
28336;DHT22;15592;53.656;7.276;2023-11-21T06:19:57;7.90;99.90
28336;DHT22;15592;53.656;7.276;2023-11-21T06:22:23;7.90;99.90
28336;DHT22;15592;53.656;7.276;2023-11-21T06:24:48;7.90;99.90
28336;DHT22;15592;53.656;7.276;2023-11-21T06:27:14;7.90;99.90
28336;DHT22;15592;53.656;7.276;2023-11-21T06:29:41;7.90;99.90
28336;DHT22;15592;53.656;7.276;2023-11-21T06:32:07;7.80;99.90
28336;DHT22;15592;53.656;7.276;2023-11-21T06:34:33;7.80;99.90
28336;DHT22;15592;53.656;7.276;2023-11-21T06:36:59;7.80;99.90
28336;DHT22;15592;53.656;7.276;2023-11-21T06:39:25;7.80;99.90
28336;DHT22;15592;53.656;7.276;2023-11-21T06:41:50;7.70;99.90
28336;DHT22;15592;53.656;7.276;2023-11-21T06:44:16;7.60;99.90
28336;DHT22;15592;53.656;7.276;2023-11-21T06:46:41;7.60;99.90
28336;DHT22;15592;53.656;7.276;2023-11-21T06:49:08;7.50;99.90
28336;DHT22;15592;53.656;7.276;2023-11-21T06:51:34;7.50;99.90
28336;DHT22;15592;53.656;7.276;2023-11-21T06:53:59;7.40;99.90
28336;DHT22;15592;53.656;7.276;2023-11-21T06:56:25;7.40;99.90
28336;DHT22;15592;53.656;7.276;2023-11-21T06:58:51;7.40;99.90
28336;DHT22;15592;53.656;7.276;2023-11-21T07:01:19;7.30;99.90
28336;DHT22;15592;53.656;7.276;2023-11-21T07:03:45;7.30;99.90
28336;DHT22;15592;53.656;7.276;2023-11-21T07:06:11;7.20;99.90
28336;DHT22;15592;53.656;7.276;2023-11-21T07:08:37;7.20;99.90
28336;DHT22;15592;53.656;7.276;2023-11-21T07:11:03;7.20;99.90
28336;DHT22;15592;53.656;7.276;2023-11-21T07:13:30;7.20;99.90
28336;DHT22;15592;53.656;7.276;2023-11-21T07:15:56;7.20;99.90
28336;DHT22;15592;53.656;7.276;2023-11-21T07:18:21;7.10;99.90
28336;DHT22;15592;53.656;7.276;2023-11-21T07:20:48;7.10;99.90
28336;DHT22;15592;53.656;7.276;2023-11-21T07:23:14;7.10;99.90
28336;DHT22;15592;53.656;7.276;2023-11-21T07:25:41;7.10;99.90
28336;DHT22;15592;53.656;7.276;2023-11-21T07:28:07;7.10;99.90
28336;DHT22;15592;53.656;7.276;2023-11-21T07:30:32;7.00;99.90
28336;DHT22;15592;53.656;7.276;2023-11-21T07:32:58;7.00;99.90
28336;DHT22;15592;53.656;7.276;2023-11-21T07:35:24;7.00;99.90
28336;DHT22;15592;53.656;7.276;2023-11-21T07:37:49;7.00;99.90
28336;DHT22;15592;53.656;7.276;2023-11-21T07:40:15;7.00;99.90
28336;DHT22;15592;53.656;7.276;2023-11-21T07:42:42;7.00;99.90
28336;DHT22;15592;53.656;7.276;2023-11-21T07:45:08;7.00;99.90
28336;DHT22;15592;53.656;7.276;2023-11-21T07:47:34;7.00;99.90
28336;DHT22;15592;53.656;7.276;2023-11-21T07:50:03;7.00;99.90
28336;DHT22;15592;53.656;7.276;2023-11-21T07:52:29;7.00;99.90
28336;DHT22;15592;53.656;7.276;2023-11-21T07:54:54;7.00;99.90
28336;DHT22;15592;53.656;7.276;2023-11-21T07:57:20;7.00;99.90
28336;DHT22;15592;53.656;7.276;2023-11-21T07:59:46;7.00;99.90
28336;DHT22;15592;53.656;7.276;2023-11-21T08:02:11;7.00;99.90
28336;DHT22;15592;53.656;7.276;2023-11-21T08:04:37;7.00;99.90
28336;DHT22;15592;53.656;7.276;2023-11-21T08:07:03;7.00;99.90
28336;DHT22;15592;53.656;7.276;2023-11-21T08:09:29;7.00;99.90
28336;DHT22;15592;53.656;7.276;2023-11-21T08:11:55;7.10;99.90
28336;DHT22;15592;53.656;7.276;2023-11-21T08:14:22;7.10;99.90
28336;DHT22;15592;53.656;7.276;2023-11-21T08:16:47;7.10;99.90
28336;DHT22;15592;53.656;7.276;2023-11-21T08:19:13;7.10;99.90
28336;DHT22;15592;53.656;7.276;2023-11-21T08:21:38;7.10;99.90
28336;DHT22;15592;53.656;7.276;2023-11-21T08:24:06;7.10;99.90
28336;DHT22;15592;53.656;7.276;2023-11-21T08:26:36;7.10;99.90
28336;DHT22;15592;53.656;7.276;2023-11-21T08:29:02;7.20;99.90
28336;DHT22;15592;53.656;7.276;2023-11-21T08:31:27;7.20;99.90
28336;DHT22;15592;53.656;7.276;2023-11-21T08:33:54;7.20;99.90
28336;DHT22;15592;53.656;7.276;2023-11-21T08:36:21;7.20;99.90
28336;DHT22;15592;53.656;7.276;2023-11-21T08:38:48;7.20;99.90
28336;DHT22;15592;53.656;7.276;2023-11-21T08:41:14;7.10;99.90
28336;DHT22;15592;53.656;7.276;2023-11-21T08:43:40;7.10;99.90
28336;DHT22;15592;53.656;7.276;2023-11-21T08:46:06;7.10;99.90
28336;DHT22;15592;53.656;7.276;2023-11-21T08:48:35;7.00;99.90
28336;DHT22;15592;53.656;7.276;2023-11-21T08:51:01;7.10;99.90
28336;DHT22;15592;53.656;7.276;2023-11-21T08:53:27;7.10;99.90
28336;DHT22;15592;53.656;7.276;2023-11-21T08:55:52;7.10;99.90
28336;DHT22;15592;53.656;7.276;2023-11-21T08:58:19;7.10;99.90
28336;DHT22;15592;53.656;7.276;2023-11-21T09:00:45;7.20;99.90
28336;DHT22;15592;53.656;7.276;2023-11-21T09:03:12;7.20;99.90
28336;DHT22;15592;53.656;7.276;2023-11-21T09:05:39;7.20;99.90
28336;DHT22;15592;53.656;7.276;2023-11-21T09:08:05;7.30;99.90
28336;DHT22;15592;53.656;7.276;2023-11-21T09:10:30;7.30;99.90
28336;DHT22;15592;53.656;7.276;2023-11-21T09:12:56;7.40;99.90
28336;DHT22;15592;53.656;7.276;2023-11-21T09:15:22;7.40;99.90
28336;DHT22;15592;53.656;7.276;2023-11-21T09:17:48;7.40;99.90
28336;DHT22;15592;53.656;7.276;2023-11-21T09:20:14;7.40;99.90
28336;DHT22;15592;53.656;7.276;2023-11-21T09:22:40;7.50;99.90
28336;DHT22;15592;53.656;7.276;2023-11-21T09:25:06;7.50;99.90
28336;DHT22;15592;53.656;7.276;2023-11-21T09:27:34;7.50;99.90
28336;DHT22;15592;53.656;7.276;2023-11-21T09:30:01;7.50;99.90
28336;DHT22;15592;53.656;7.276;2023-11-21T09:32:27;7.50;99.90
28336;DHT22;15592;53.656;7.276;2023-11-21T09:34:53;7.50;99.90
28336;DHT22;15592;53.656;7.276;2023-11-21T09:37:20;7.50;99.90
28336;DHT22;15592;53.656;7.276;2023-11-21T09:39:46;7.50;99.90
28336;DHT22;15592;53.656;7.276;2023-11-21T09:42:17;7.50;99.90
28336;DHT22;15592;53.656;7.276;2023-11-21T09:45:02;7.50;99.90
28336;DHT22;15592;53.656;7.276;2023-11-21T09:47:30;7.40;99.90
28336;DHT22;15592;53.656;7.276;2023-11-21T09:49:56;7.40;99.90
28336;DHT22;15592;53.656;7.276;2023-11-21T09:52:27;7.30;99.90
28336;DHT22;15592;53.656;7.276;2023-11-21T09:54:54;7.30;99.90
28336;DHT22;15592;53.656;7.276;2023-11-21T09:57:23;7.30;99.90
28336;DHT22;15592;53.656;7.276;2023-11-21T09:59:53;7.30;99.90
28336;DHT22;15592;53.656;7.276;2023-11-21T10:02:28;7.30;99.90
28336;DHT22;15592;53.656;7.276;2023-11-21T10:05:00;7.30;99.90
28336;DHT22;15592;53.656;7.276;2023-11-21T10:07:26;7.30;99.90
28336;DHT22;15592;53.656;7.276;2023-11-21T10:09:54;7.30;99.90
28336;DHT22;15592;53.656;7.276;2023-11-21T10:12:22;7.30;99.90
28336;DHT22;15592;53.656;7.276;2023-11-21T10:14:49;7.40;99.90
28336;DHT22;15592;53.656;7.276;2023-11-21T10:17:18;7.40;99.90
28336;DHT22;15592;53.656;7.276;2023-11-21T10:19:47;7.50;99.90
28336;DHT22;15592;53.656;7.276;2023-11-21T10:22:14;7.50;99.90
28336;DHT22;15592;53.656;7.276;2023-11-21T10:24:40;7.50;99.90
28336;DHT22;15592;53.656;7.276;2023-11-21T10:27:08;7.50;99.90
28336;DHT22;15592;53.656;7.276;2023-11-21T10:29:33;7.40;99.90
28336;DHT22;15592;53.656;7.276;2023-11-21T10:32:02;7.40;99.90
28336;DHT22;15592;53.656;7.276;2023-11-21T10:34:28;7.40;99.90
28336;DHT22;15592;53.656;7.276;2023-11-21T10:36:53;7.40;99.90
28336;DHT22;15592;53.656;7.276;2023-11-21T10:39:21;7.30;99.90
28336;DHT22;15592;53.656;7.276;2023-11-21T10:41:49;7.30;99.90
28336;DHT22;15592;53.656;7.276;2023-11-21T10:44:15;7.40;99.90
28336;DHT22;15592;53.656;7.276;2023-11-21T10:46:54;7.30;99.90
28336;DHT22;15592;53.656;7.276;2023-11-21T10:49:24;7.30;99.90
28336;DHT22;15592;53.656;7.276;2023-11-21T10:51:51;7.30;99.90
28336;DHT22;15592;53.656;7.276;2023-11-21T10:54:19;7.30;99.90
28336;DHT22;15592;53.656;7.276;2023-11-21T10:56:47;7.30;99.90
28336;DHT22;15592;53.656;7.276;2023-11-21T10:59:16;7.30;99.90
28336;DHT22;15592;53.656;7.276;2023-11-21T11:01:45;7.30;99.90
28336;DHT22;15592;53.656;7.276;2023-11-21T11:04:14;7.20;99.90
28336;DHT22;15592;53.656;7.276;2023-11-21T11:06:47;7.20;99.90
28336;DHT22;15592;53.656;7.276;2023-11-21T11:09:16;7.20;99.90
28336;DHT22;15592;53.656;7.276;2023-11-21T11:11:42;7.10;99.90
28336;DHT22;15592;53.656;7.276;2023-11-21T11:14:13;7.20;99.90
28336;DHT22;15592;53.656;7.276;2023-11-21T11:16:40;7.10;99.90
28336;DHT22;15592;53.656;7.276;2023-11-21T11:19:11;7.10;99.90
28336;DHT22;15592;53.656;7.276;2023-11-21T11:21:59;7.10;99.90
28336;DHT22;15592;53.656;7.276;2023-11-21T11:27:29;7.00;99.90
28336;DHT22;15592;53.656;7.276;2023-11-21T11:35:18;7.10;99.90
28336;DHT22;15592;53.656;7.276;2023-11-21T11:37:44;7.10;99.90
28336;DHT22;15592;53.656;7.276;2023-11-21T11:40:13;7.10;99.90
28336;DHT22;15592;53.656;7.276;2023-11-21T11:42:57;7.20;99.90
28336;DHT22;15592;53.656;7.276;2023-11-21T11:45:33;7.20;99.90
28336;DHT22;15592;53.656;7.276;2023-11-21T11:48:01;7.30;99.90
28336;DHT22;15592;53.656;7.276;2023-11-21T11:50:27;7.20;99.90
28336;DHT22;15592;53.656;7.276;2023-11-21T11:52:53;7.30;99.90
28336;DHT22;15592;53.656;7.276;2023-11-21T11:55:24;7.20;99.90
28336;DHT22;15592;53.656;7.276;2023-11-21T11:57:52;7.20;99.90
28336;DHT22;15592;53.656;7.276;2023-11-21T12:02:57;7.10;99.90
28336;DHT22;15592;53.656;7.276;2023-11-21T12:05:24;7.20;99.90
28336;DHT22;15592;53.656;7.276;2023-11-21T12:07:57;7.20;99.90
28336;DHT22;15592;53.656;7.276;2023-11-21T12:10:32;7.20;99.90
28336;DHT22;15592;53.656;7.276;2023-11-21T12:13:00;7.20;99.90
28336;DHT22;15592;53.656;7.276;2023-11-21T12:15:27;7.20;99.90
28336;DHT22;15592;53.656;7.276;2023-11-21T12:17:57;7.20;99.90
28336;DHT22;15592;53.656;7.276;2023-11-21T12:20:24;7.20;99.90
28336;DHT22;15592;53.656;7.276;2023-11-21T12:22:51;7.20;99.90
28336;DHT22;15592;53.656;7.276;2023-11-21T12:25:19;7.20;99.90
28336;DHT22;15592;53.656;7.276;2023-11-21T12:27:46;7.20;99.90
28336;DHT22;15592;53.656;7.276;2023-11-21T12:30:15;7.20;99.90
28336;DHT22;15592;53.656;7.276;2023-11-21T12:32:42;7.20;99.90
28336;DHT22;15592;53.656;7.276;2023-11-21T12:35:12;7.20;99.90
28336;DHT22;15592;53.656;7.276;2023-11-21T12:37:38;7.20;99.90
28336;DHT22;15592;53.656;7.276;2023-11-21T12:40:08;7.20;99.90
28336;DHT22;15592;53.656;7.276;2023-11-21T12:42:39;7.20;99.90
28336;DHT22;15592;53.656;7.276;2023-11-21T12:45:22;7.20;99.90
28336;DHT22;15592;53.656;7.276;2023-11-21T12:47:53;7.20;99.90
28336;DHT22;15592;53.656;7.276;2023-11-21T12:50:24;7.20;99.90
28336;DHT22;15592;53.656;7.276;2023-11-21T12:52:57;7.20;99.90
28336;DHT22;15592;53.656;7.276;2023-11-21T12:55:23;7.10;99.90
28336;DHT22;15592;53.656;7.276;2023-11-21T12:57:53;7.10;99.90
28336;DHT22;15592;53.656;7.276;2023-11-21T13:00:34;7.10;99.90
28336;DHT22;15592;53.656;7.276;2023-11-21T13:03:04;7.10;99.90
28336;DHT22;15592;53.656;7.276;2023-11-21T13:05:35;7.10;99.90
28336;DHT22;15592;53.656;7.276;2023-11-21T13:08:04;7.10;99.90
28336;DHT22;15592;53.656;7.276;2023-11-21T13:10:34;7.10;99.90
28336;DHT22;15592;53.656;7.276;2023-11-21T13:13:02;7.10;99.90
28336;DHT22;15592;53.656;7.276;2023-11-21T13:15:31;7.20;99.90
28336;DHT22;15592;53.656;7.276;2023-11-21T13:17:58;7.10;99.90
28336;DHT22;15592;53.656;7.276;2023-11-21T13:20:27;7.20;99.90
28336;DHT22;15592;53.656;7.276;2023-11-21T13:22:56;7.20;99.90
28336;DHT22;15592;53.656;7.276;2023-11-21T13:25:33;7.20;99.90
28336;DHT22;15592;53.656;7.276;2023-11-21T13:28:02;7.20;99.90
28336;DHT22;15592;53.656;7.276;2023-11-21T13:30:29;7.20;99.90
28336;DHT22;15592;53.656;7.276;2023-11-21T13:32:59;7.20;99.90
28336;DHT22;15592;53.656;7.276;2023-11-21T13:35:30;7.10;99.90
28336;DHT22;15592;53.656;7.276;2023-11-21T13:38:04;7.10;99.90
28336;DHT22;15592;53.656;7.276;2023-11-21T13:40:32;7.10;99.90
28336;DHT22;15592;53.656;7.276;2023-11-21T13:43:00;7.00;99.90
28336;DHT22;15592;53.656;7.276;2023-11-21T13:45:29;7.00;99.90
28336;DHT22;15592;53.656;7.276;2023-11-21T13:47:56;7.00;99.90
28336;DHT22;15592;53.656;7.276;2023-11-21T13:50:25;7.00;99.90
28336;DHT22;15592;53.656;7.276;2023-11-21T13:52:58;7.10;99.90
28336;DHT22;15592;53.656;7.276;2023-11-21T13:55:27;7.00;99.90
28336;DHT22;15592;53.656;7.276;2023-11-21T13:57:52;7.00;99.90
28336;DHT22;15592;53.656;7.276;2023-11-21T14:00:19;7.00;99.90
28336;DHT22;15592;53.656;7.276;2023-11-21T14:03:03;6.90;99.90
28336;DHT22;15592;53.656;7.276;2023-11-21T14:05:34;6.90;99.90
28336;DHT22;15592;53.656;7.276;2023-11-21T14:07:59;6.90;99.90
28336;DHT22;15592;53.656;7.276;2023-11-21T14:10:31;6.80;99.90
28336;DHT22;15592;53.656;7.276;2023-11-21T14:13:06;6.80;99.90
28336;DHT22;15592;53.656;7.276;2023-11-21T14:15:32;6.80;99.90
28336;DHT22;15592;53.656;7.276;2023-11-21T14:18:02;6.80;99.90
28336;DHT22;15592;53.656;7.276;2023-11-21T14:20:33;6.80;99.90
28336;DHT22;15592;53.656;7.276;2023-11-21T14:22:59;6.70;99.90
28336;DHT22;15592;53.656;7.276;2023-11-21T14:25:24;6.80;99.90
28336;DHT22;15592;53.656;7.276;2023-11-21T14:27:50;6.80;99.90
28336;DHT22;15592;53.656;7.276;2023-11-21T14:30:16;6.70;99.90
28336;DHT22;15592;53.656;7.276;2023-11-21T14:32:44;6.80;99.90
28336;DHT22;15592;53.656;7.276;2023-11-21T14:35:10;6.70;99.90
28336;DHT22;15592;53.656;7.276;2023-11-21T14:37:36;6.70;99.90
28336;DHT22;15592;53.656;7.276;2023-11-21T14:40:01;6.70;99.90
28336;DHT22;15592;53.656;7.276;2023-11-21T14:42:30;6.60;99.90
28336;DHT22;15592;53.656;7.276;2023-11-21T14:44:55;6.50;99.90
28336;DHT22;15592;53.656;7.276;2023-11-21T14:47:25;6.50;99.90
28336;DHT22;15592;53.656;7.276;2023-11-21T14:49:52;6.50;99.90
28336;DHT22;15592;53.656;7.276;2023-11-21T14:52:21;6.50;99.90
28336;DHT22;15592;53.656;7.276;2023-11-21T14:55:08;6.40;99.90
28336;DHT22;15592;53.656;7.276;2023-11-21T14:57:57;6.40;99.90
28336;DHT22;15592;53.656;7.276;2023-11-21T15:00:27;6.40;99.90
28336;DHT22;15592;53.656;7.276;2023-11-21T15:02:59;6.30;99.90
28336;DHT22;15592;53.656;7.276;2023-11-21T15:05:28;6.30;99.90
28336;DHT22;15592;53.656;7.276;2023-11-21T15:07:55;6.30;99.90
28336;DHT22;15592;53.656;7.276;2023-11-21T15:10:36;6.30;99.90
28336;DHT22;15592;53.656;7.276;2023-11-21T15:13:12;6.30;99.90
28336;DHT22;15592;53.656;7.276;2023-11-21T15:15:39;6.30;99.90
28336;DHT22;15592;53.656;7.276;2023-11-21T15:18:05;6.30;99.90
28336;DHT22;15592;53.656;7.276;2023-11-21T15:20:32;6.40;99.90
28336;DHT22;15592;53.656;7.276;2023-11-21T15:22:57;6.40;99.90
28336;DHT22;15592;53.656;7.276;2023-11-21T15:25:23;6.40;99.90
28336;DHT22;15592;53.656;7.276;2023-11-21T15:27:49;6.40;99.90
28336;DHT22;15592;53.656;7.276;2023-11-21T15:30:16;6.40;99.90
28336;DHT22;15592;53.656;7.276;2023-11-21T15:32:45;6.40;99.90
28336;DHT22;15592;53.656;7.276;2023-11-21T15:35:12;6.40;99.90
28336;DHT22;15592;53.656;7.276;2023-11-21T15:37:40;6.40;99.90
28336;DHT22;15592;53.656;7.276;2023-11-21T15:40:06;6.40;99.90
28336;DHT22;15592;53.656;7.276;2023-11-21T15:42:34;6.50;99.90
28336;DHT22;15592;53.656;7.276;2023-11-21T15:45:07;6.50;99.90
28336;DHT22;15592;53.656;7.276;2023-11-21T15:47:33;6.50;99.90
28336;DHT22;15592;53.656;7.276;2023-11-21T15:49:59;6.50;99.90
28336;DHT22;15592;53.656;7.276;2023-11-21T15:52:25;6.50;99.90
28336;DHT22;15592;53.656;7.276;2023-11-21T15:54:51;6.50;99.90
28336;DHT22;15592;53.656;7.276;2023-11-21T15:57:16;6.60;99.90